Ever Develop — 3FLF8 — position and weather

sailwx.info

Track history (hours):
 
Tides and Currents Weather Stations Pressure Air Temp Water Temp Dewpoint Dewpoint Depression Visibility Wind Speed Wind Dir Waves Ship Positions

Ever Develop

Last reported at 2016-Feb-08 07:33 UTC. Time now 2016-Feb-08 08:12 UTC.
Position N 39°13' W 076°31'.

Type: Ship (hazmat cat D). MMSI: 356391000.

Date/timePositionNaut miles runAvg speedWind from/ knotsBaromVisibWave heightAir tempDewpointWater temp
2016-Feb-08 07:33N 39°13' W 076°31'1111.0
2016-Feb-08 06:34N 39°04' W 076°23'1616.0
2016-Feb-08 05:33N 38°48' W 076°25'2517.8
2016-Feb-08 04:10N 38°23' W 076°20'1218.7
2016-Feb-08 03:32N 38°12' W 076°15'1918.6
2016-Feb-08 02:29N 37°53' W 076°09'4916.3
2016-Feb-07 23:30N 37°05' W 076°06'1212.7
2016-Feb-07 22:33N 36°56' W 075°56'11 7.4
2016-Feb-07 21:07N 36°49' W 075°45'  
Track history (hours):
 
Tides and Currents Weather Stations Pressure Air Temp Water Temp Dewpoint Dewpoint Depression Visibility Wind Speed Wind Dir Waves Ship Positions

Ever Develop

Last reported at 2016-Feb-08 07:33 UTC. Time now 2016-Feb-08 08:12 UTC.
Position N 39°13' W 076°31'.

Type: Ship (hazmat cat D). MMSI: 356391000.

Date/timePositionNaut miles runAvg speedWind from/ knotsBaromVisibWave heightAir tempDewpointWater temp
2016-Feb-08 07:33N 39°13' W 076°31'1111.0
2016-Feb-08 06:34N 39°04' W 076°23'1616.0
2016-Feb-08 05:33N 38°48' W 076°25'2517.8
2016-Feb-08 04:10N 38°23' W 076°20'1218.7
2016-Feb-08 03:32N 38°12' W 076°15'1918.6
2016-Feb-08 02:29N 37°53' W 076°09'4916.3
2016-Feb-07 23:30N 37°05' W 076°06'1212.7
2016-Feb-07 22:33N 36°56' W 075°56'11 7.4
2016-Feb-07 21:07N 36°49' W 075°45'  

Dump ship's entire track history